Time;durP1;ratioP1;P1;durP2;ratioP2;P2;SDS_P1;SDS_P2;PMS_P1;PMS_P2;Temp;Humidity;BMP_temperature;BMP_pressure;BME280_temperature;BME280_humidity;BME280_pressure;Samples;Min_cycle;Max_cycle;Signal;HPM_P1;HPM_P2
2022/08/04 00:01:26;;;;;;;16.85;12.10;;;;;;;;;;10037171;23;20467;-88
2022/08/04 00:06:22;;;;;;;15.55;12.90;;;;;;;;;;9901435;24;20032;-88
2022/08/04 00:15:42;;;;;;;18.13;13.55;;;;;;;;;;9852830;24;20485;-88
2022/08/04 00:20:54;;;;;;;14.02;11.73;;;;;;;;;;9896064;24;20097;-87
2022/08/04 00:30:22;;;;;;;14.05;12.55;;;;;;;;;;10013365;23;20051;-89
2022/08/04 00:34:39;;;;;;;14.45;11.95;;;;;;;;;;10060740;23;20023;-87
2022/08/04 00:39:00;;;;;;;13.35;11.30;;;;;;;;;;10044822;23;20015;-87
2022/08/04 00:43:33;;;;;;;12.55;10.68;;;;;;;;;;10058103;23;20089;-86
2022/08/04 00:48:20;;;;;;;11.77;10.13;;;;;;;;;;10056761;23;20030;-87
2022/08/04 00:52:56;;;;;;;13.07;10.48;;;;;;;;;;10092283;23;20065;-89
2022/08/04 00:58:00;;;;;;;14.95;11.50;;;;;;;;;;10084260;23;20019;-87
2022/08/04 01:07:31;;;;;;;13.82;8.32;;;;;;;;;;10080438;23;20343;-87
2022/08/04 01:22:44;;;;;;;11.93;10.38;;;;;;;;;;9990933;23;20026;-88
2022/08/04 01:27:07;;;;;;;14.88;10.75;;;;;;;;;;9995900;23;20064;-88
2022/08/04 01:31:37;;;;;;;14.23;11.50;;;;;;;;;;10107972;23;20101;-88
2022/08/04 01:36:19;;;;;;;10.25;8.52;;;;;;;;;;10091410;23;20478;-88
2022/08/04 01:45:34;;;;;;;13.85;8.90;;;;;;;;;;10175147;23;20029;-91
2022/08/04 01:50:07;;;;;;;13.00;9.20;;;;;;;;;;10205141;23;20026;-89
2022/08/04 01:54:42;;;;;;;11.93;9.20;;;;;;;;;;10038884;23;20030;-88
2022/08/04 01:59:11;;;;;;;12.93;10.65;;;;;;;;;;10034378;23;20031;-88
2022/08/04 02:03:41;;;;;;;11.27;9.15;;;;;;;;;;10032322;23;20026;-88
2022/08/04 02:08:08;;;;;;;;;;;;;;;;;;10051926;23;20022;-87
2022/08/04 02:13:11;;;;;;;12.80;10.68;;;;;;;;;;9996770;23;19918;-87
2022/08/04 02:17:32;;;;;;;15.43;11.18;;;;;;;;;;10049803;23;20026;-88
2022/08/04 02:22:05;;;;;;;11.10;8.10;;;;;;;;;;10032345;23;20101;-88
2022/08/04 02:26:17;;;;;;;12.23;9.02;;;;;;;;;;10082715;23;20029;-93
2022/08/04 02:30:42;;;;;;;12.82;10.70;;;;;;;;;;10189063;23;20087;-87
2022/08/04 02:35:05;;;;;;;12.82;10.05;;;;;;;;;;10205140;23;20025;-88
2022/08/04 02:39:18;;;;;;;10.70;8.35;;;;;;;;;;10188573;23;20040;-87
2022/08/04 02:43:29;;;;;;;11.13;8.40;;;;;;;;;;10205061;23;20319;-87
2022/08/04 02:47:36;;;;;;;12.95;10.32;;;;;;;;;;10204207;23;20029;-87
2022/08/04 02:51:45;;;;;;;13.13;10.45;;;;;;;;;;10188456;23;20026;-87
2022/08/04 02:55:49;;;;;;;12.52;10.57;;;;;;;;;;10199217;23;20402;-87
2022/08/04 03:00:08;;;;;;;13.15;10.75;;;;;;;;;;10188598;23;20017;-87
2022/08/04 03:04:33;;;;;;;13.48;9.70;;;;;;;;;;10204787;23;20047;-87
2022/08/04 03:09:18;;;;;;;12.20;10.57;;;;;;;;;;10204862;23;20017;-87
2022/08/04 03:14:08;;;;;;;10.65;7.95;;;;;;;;;;10204899;23;20025;-90
2022/08/04 03:19:00;;;;;;;13.25;9.77;;;;;;;;;;10204140;23;20144;-87
2022/08/04 03:23:44;;;;;;;13.87;10.00;;;;;;;;;;10190792;23;20013;-87
2022/08/04 03:28:29;;;;;;;13.57;10.25;;;;;;;;;;10191431;23;20265;-87
2022/08/04 03:33:27;;;;;;;12.73;10.38;;;;;;;;;;10198606;23;20044;-87
2022/08/04 03:37:50;;;;;;;15.27;10.45;;;;;;;;;;10207656;23;20018;-87
2022/08/04 03:42:17;;;;;;;13.98;10.60;;;;;;;;;;10207515;23;20024;-87
2022/08/04 03:46:56;;;;;;;13.93;10.25;;;;;;;;;;10175268;23;20029;-87
2022/08/04 03:56:27;;;;;;;13.82;10.15;;;;;;;;;;10185540;23;20442;-87
2022/08/04 04:00:37;;;;;;;12.80;10.27;;;;;;;;;;10191063;23;20045;-86
2022/08/04 04:05:04;;;;;;;14.48;10.90;;;;;;;;;;10207397;23;20045;-86
2022/08/04 04:09:31;;;;;;;15.60;10.23;;;;;;;;;;10207181;23;20014;-86
2022/08/04 04:13:59;;;;;;;13.35;10.60;;;;;;;;;;10190776;23;20477;-87
2022/08/04 04:18:21;;;;;;;16.90;10.77;;;;;;;;;;10207066;23;20044;-86
2022/08/04 04:22:38;;;;;;;;;;;;;;;;;;10197114;23;20017;-87
2022/08/04 04:26:53;;;;;;;12.07;10.25;;;;;;;;;;10185864;23;19962;-86
2022/08/04 04:31:11;;;;;;;13.85;10.65;;;;;;;;;;10206494;23;20416;-87
2022/08/04 04:35:30;;;;;;;14.02;9.57;;;;;;;;;;10203941;23;20022;-86
2022/08/04 04:39:50;;;;;;;14.07;10.15;;;;;;;;;;10206026;23;20017;-87
2022/08/04 04:44:36;;;;;;;12.27;9.70;;;;;;;;;;10189858;23;20021;-87
2022/08/04 04:49:06;;;;;;;12.60;9.82;;;;;;;;;;10189566;23;20013;-88
2022/08/04 04:53:34;;;;;;;14.27;9.60;;;;;;;;;;10189718;23;20020;-87
2022/08/04 04:58:04;;;;;;;14.20;9.18;;;;;;;;;;10206245;23;20021;-87
2022/08/04 08:42:37;;;;;;;3.45;2.20;;;;;;;;;;10054823;23;20105;-88
2022/08/04 08:47:00;;;;;;;5.20;2.70;;;;;;;;;;10055023;23;20029;-88
2022/08/04 09:37:35;;;;;;;9.95;4.60;;;;;;;;;;9893410;24;20035;-90
2022/08/04 10:20:39;;;;;;;14.82;6.97;;;;;;;;;;10021233;23;20054;-86
2022/08/04 10:24:56;;;;;;;10.63;5.15;;;;;;;;;;10051658;23;20082;-86
2022/08/04 10:29:37;;;;;;;11.52;4.40;;;;;;;;;;10040948;23;20026;-88
2022/08/04 10:33:58;;;;;;;6.22;4.13;;;;;;;;;;10033581;23;20154;-85
2022/08/04 10:38:23;;;;;;;5.93;4.22;;;;;;;;;;10040857;23;20128;-87
2022/08/04 10:42:41;;;;;;;5.57;3.20;;;;;;;;;;10030735;23;20050;-86
2022/08/04 10:46:54;;;;;;;9.75;3.67;;;;;;;;;;10047904;23;20022;-85
2022/08/04 10:51:43;;;;;;;6.68;3.63;;;;;;;;;;10164790;23;20029;-85
2022/08/04 10:55:59;;;;;;;4.35;3.60;;;;;;;;;;10180400;23;20509;-85
2022/08/04 11:00:07;;;;;;;6.07;4.07;;;;;;;;;;10200027;23;20346;-86
2022/08/04 11:04:36;;;;;;;4.15;3.30;;;;;;;;;;10175369;23;20018;-87
2022/08/04 11:08:54;;;;;;;5.97;4.22;;;;;;;;;;10202872;23;20017;-85
2022/08/04 11:13:24;;;;;;;8.90;4.15;;;;;;;;;;10197866;23;20067;-86
2022/08/04 11:17:35;;;;;;;7.97;3.70;;;;;;;;;;10187578;23;20021;-86
2022/08/04 11:21:44;;;;;;;10.73;7.22;;;;;;;;;;10199472;23;20342;-84
2022/08/04 11:26:04;;;;;;;7.93;3.38;;;;;;;;;;10173565;23;20112;-87
2022/08/04 11:30:13;;;;;;;4.30;3.47;;;;;;;;;;10199811;23;20460;-85
2022/08/04 11:43:21;;;;;;;5.22;3.38;;;;;;;;;;10073823;23;20060;-89
2022/08/04 11:57:48;;;;;;;4.80;3.20;;;;;;;;;;10233958;23;20430;-85
2022/08/04 12:08:30;;;;;;;5.75;2.90;;;;;;;;;;9989656;23;20023;-87
2022/08/04 12:19:23;;;;;;;6.10;2.92;;;;;;;;;;9948607;23;20038;-90
2022/08/04 12:23:58;;;;;;;4.75;3.17;;;;;;;;;;9862635;24;20032;-88
2022/08/04 12:38:21;;;;;;;4.82;3.25;;;;;;;;;;9886649;24;20089;-90
2022/08/04 12:56:36;;;;;;;6.47;3.42;;;;;;;;;;10100370;23;20102;-89
2022/08/04 13:10:58;;;;;;;;;;;;;;;;;;;;;
2022/08/04 13:15:46;;;;;;;3.17;2.80;;;;;;;;;;10093188;23;20323;-88
2022/08/04 13:25:32;;;;;;;10.48;5.53;;;;;;;;;;10087527;23;20034;-91
2022/08/04 13:30:01;;;;;;;5.88;3.25;;;;;;;;;;10081495;23;20343;-87
2022/08/04 13:39:54;;;;;;;6.03;2.92;;;;;;;;;;10088399;23;20355;-88
2022/08/04 13:44:47;;;;;;;5.60;2.60;;;;;;;;;;10040477;23;20022;-90
2022/08/04 13:49:38;;;;;;;4.30;3.08;;;;;;;;;;10071974;23;20029;-88
2022/08/04 13:59:12;;;;;;;2.95;2.58;;;;;;;;;;10088722;23;20018;-87
2022/08/04 14:03:33;;;;;;;6.03;3.17;;;;;;;;;;10063138;23;20026;-88
2022/08/04 14:13:30;;;;;;;4.78;3.20;;;;;;;;;;10083898;23;20120;-90
2022/08/04 14:18:40;;;;;;;4.75;2.90;;;;;;;;;;10104316;23;20029;-89
2022/08/04 14:27:42;;;;;;;5.15;2.80;;;;;;;;;;10071979;23;20053;-87
2022/08/04 14:32:16;;;;;;;3.83;2.80;;;;;;;;;;10102216;23;20022;-87
2022/08/04 14:51:16;;;;;;;4.53;2.95;;;;;;;;;;10065045;23;20068;-87
2022/08/04 15:11:34;;;;;;;4.95;2.65;;;;;;;;;;9990238;23;20022;-87
2022/08/04 15:21:48;;;;;;;6.18;2.88;;;;;;;;;;10076524;23;20076;-90
2022/08/04 15:30:42;;;;;;;6.63;2.88;;;;;;;;;;10090610;23;20484;-89
2022/08/04 15:35:16;;;;;;;7.80;3.67;;;;;;;;;;10080978;23;20097;-88
2022/08/04 15:39:54;;;;;;;6.40;2.70;;;;;;;;;;10091429;23;20328;-88
2022/08/04 15:49:32;;;;;;;5.72;3.30;;;;;;;;;;10090908;23;20049;-88
2022/08/04 15:54:24;;;;;;;8.25;3.38;;;;;;;;;;10109885;23;20018;-88
2022/08/04 15:59:00;;;;;;;5.22;3.35;;;;;;;;;;10093056;23;20034;-88
2022/08/04 16:04:03;;;;;;;3.58;2.65;;;;;;;;;;10110284;23;20101;-87
2022/08/04 16:08:57;;;;;;;5.53;3.08;;;;;;;;;;10092036;23;20089;-90
2022/08/04 16:23:49;;;;;;;4.18;3.20;;;;;;;;;;10087577;23;20011;-89
2022/08/04 17:20:24;;;;;;;5.07;3.00;;;;;;;;;;10132970;23;20040;-89
2022/08/04 17:24:43;;;;;;;7.25;3.45;;;;;;;;;;10238207;23;20020;-90
2022/08/04 17:33:45;;;;;;;4.15;2.97;;;;;;;;;;10232595;23;20021;-88
2022/08/04 17:42:53;;;;;;;7.63;3.58;;;;;;;;;;10220235;23;20656;-88
2022/08/04 17:47:10;;;;;;;7.40;3.70;;;;;;;;;;10231498;23;20029;-87
2022/08/04 17:51:50;;;;;;;5.85;3.72;;;;;;;;;;10199579;23;20033;-87
2022/08/04 17:55:59;;;;;;;8.40;4.22;;;;;;;;;;10083853;23;20111;-87
2022/08/04 18:00:19;;;;;;;9.23;4.05;;;;;;;;;;10085383;23;20023;-89
2022/08/04 18:04:34;;;;;;;4.68;3.20;;;;;;;;;;10101518;23;20309;-88
2022/08/04 20:15:20;;;;;;;7.43;5.53;;;;;;;;;;9581926;24;20055;-90
2022/08/04 20:19:49;;;;;;;6.53;5.72;;;;;;;;;;9586547;24;20077;-89
2022/08/04 20:24:45;;;;;;;11.18;4.97;;;;;;;;;;9830512;24;20047;-90
2022/08/04 20:29:57;;;;;;;7.28;4.90;;;;;;;;;;9854197;24;20025;-90
2022/08/04 20:39:13;;;;;;;9.88;6.18;;;;;;;;;;9766694;24;20065;-89
2022/08/04 20:43:43;;;;;;;9.32;6.63;;;;;;;;;;9915503;24;20020;-88
2022/08/04 20:48:35;;;;;;;9.65;6.40;;;;;;;;;;9899615;24;20047;-88
2022/08/04 20:53:42;;;;;;;13.20;7.43;;;;;;;;;;9899617;24;20525;-89
2022/08/04 20:58:39;;;;;;;9.88;6.70;;;;;;;;;;9898587;24;20048;-90
2022/08/04 21:13:19;;;;;;;7.70;5.53;;;;;;;;;;9713239;24;20029;-89
2022/08/04 21:23:15;;;;;;;6.95;6.05;;;;;;;;;;9757193;24;20025;-89
2022/08/04 21:27:57;;;;;;;10.35;6.20;;;;;;;;;;9672619;24;20412;-90
2022/08/04 21:54:51;;;;;;;8.02;6.47;;;;;;;;;;9756666;24;20029;-90
2022/08/04 21:59:44;;;;;;;10.95;6.40;;;;;;;;;;9705384;24;20098;-89
2022/08/04 22:10:22;;;;;;;7.88;6.05;;;;;;;;;;9792005;24;20024;-90
2022/08/04 23:02:48;;;;;;;;;;;;;;;;;;;;;
2022/08/04 23:32:18;;;;;;;7.28;5.45;;;;;;;;;;10089296;23;20022;-89
2022/08/04 23:36:56;;;;;;;;;;;;;;;;;;;;;
2022/08/04 23:41:37;;;;;;;7.35;5.57;;;;;;;;;;10079134;23;20602;-89
2022/08/04 23:46:18;;;;;;;6.60;5.20;;;;;;;;;;9845442;24;20152;-89
2022/08/04 23:50:39;;;;;;;7.50;5.80;;;;;;;;;;9900522;24;20027;-89
